EPRZ/RZE METAR and TAF weather

Enter ICAO airport designator
Station Type Date Time Source
EPRZ METAR 2021/05/14 23:00 UTC NOAA

EPRZ 142300Z 26008KT 8000 FEW048 12/11 Q1008


Station Type Date Time Source
EPRZ Decoded METAR 2021/05/14 23:00 UTC NOAA

Rzeszow-Jasionka, Poland (EPRZ) 50-06N 022-03E 202M
May 14, 2021 - 07:00 PM EDT / 2021.05.14 2300 UTC
Wind: from the W (260 degrees) at 9 MPH (8 KT):0
Visibility: 4 mile(s):0
Sky conditions: mostly clear
Temperature: 53 F (12 C)
Dew Point: 51 F (11 C)
Relative Humidity: 93%
Pressure (altimeter): 29.77 in. Hg (1008 hPa)
ob: EPRZ 142300Z 26008KT 8000 FEW048 12/11 Q1008
cycle: 23

Station Type Date Time Source
EPRZ TAF 2021/05/14 18:33 UTC NOAA

TAF EPRZ 141730Z 1418/1518 27010KT 9999 SCT030
TEMPO 1418/1424 4000 SHRA BKN015CB PROB30
TEMPO 1418/1421 VRB15G25KT TSRA
BECMG 1510/1513 20005KT

Example: see airport list